createdAt,value
2017-09-12T00:00:26.356Z,13.43
2017-09-12T00:02:56.168Z,13.36
2017-09-12T00:05:26.060Z,13.35
2017-09-12T00:07:55.811Z,13.35
2017-09-12T00:10:28.213Z,13.31
2017-09-12T00:12:57.729Z,13.25
2017-09-12T00:15:27.198Z,13.27
2017-09-12T00:17:56.856Z,13.24
2017-09-12T00:20:26.257Z,13.23
2017-09-12T00:22:55.910Z,13.20
2017-09-12T00:25:25.485Z,13.12
2017-09-12T00:27:54.948Z,13.09
2017-09-12T00:30:24.364Z,13.10
2017-09-12T00:32:53.705Z,13.13
2017-09-12T00:35:23.359Z,13.12
2017-09-12T00:37:52.909Z,13.11
2017-09-12T00:40:22.337Z,13.07
2017-09-12T00:42:51.726Z,13.01
2017-09-12T00:45:21.148Z,12.99
2017-09-12T00:47:50.789Z,13.03
2017-09-12T00:50:20.316Z,13.01
2017-09-12T00:52:49.704Z,13.01
2017-09-12T00:55:19.181Z,12.97
2017-09-12T00:57:49.547Z,12.96
2017-09-12T01:00:22.593Z,12.90
2017-09-12T01:02:52.172Z,12.91
2017-09-12T01:05:21.680Z,12.90
2017-09-12T01:07:51.032Z,12.88
2017-09-12T01:10:20.536Z,12.86
2017-09-12T01:12:49.972Z,12.81
2017-09-12T01:15:19.444Z,12.79
2017-09-12T01:17:48.983Z,12.81
2017-09-12T01:20:18.513Z,12.78
2017-09-12T01:22:48.004Z,12.76
2017-09-12T01:25:17.719Z,12.76
2017-09-12T01:27:47.257Z,12.76
2017-09-12T01:30:16.933Z,12.73
2017-09-12T01:32:46.332Z,12.72
2017-09-12T01:35:15.739Z,12.68
2017-09-12T01:37:47.027Z,12.66
2017-09-12T01:40:16.427Z,12.56
2017-09-12T01:42:45.713Z,12.54
2017-09-12T01:45:15.081Z,12.54
2017-09-12T01:47:44.461Z,12.57
2017-09-12T01:50:14.404Z,12.59
2017-09-12T01:52:45.838Z,12.58
2017-09-12T01:55:15.596Z,12.57
2017-09-12T01:57:44.975Z,12.53
2017-09-12T02:00:14.400Z,12.57
2017-09-12T02:02:43.797Z,12.52
2017-09-12T02:05:14.777Z,12.50
2017-09-12T02:07:44.288Z,12.50
2017-09-12T02:10:19.993Z,12.48
2017-09-12T02:12:49.659Z,12.47
2017-09-12T02:15:19.081Z,12.47
2017-09-12T02:17:49.028Z,12.46
2017-09-12T02:20:18.465Z,12.44
2017-09-12T02:22:47.820Z,12.42
2017-09-12T02:25:17.559Z,12.33
2017-09-12T02:27:49.004Z,12.36
2017-09-12T02:30:18.566Z,12.35
2017-09-12T02:32:47.880Z,12.32
2017-09-12T02:35:17.266Z,12.30
2017-09-12T02:37:46.581Z,12.29
2017-09-12T02:40:16.166Z,12.26
2017-09-12T02:42:45.481Z,12.23
2017-09-12T02:45:15.517Z,12.18
2017-09-12T02:47:45.054Z,12.16
2017-09-12T02:50:14.458Z,12.12
2017-09-12T02:52:43.909Z,12.09
2017-09-12T02:55:13.355Z,12.08
2017-09-12T02:57:42.909Z,12.05
2017-09-12T03:00:12.345Z,12.03
2017-09-12T03:02:42.072Z,12.01
2017-09-12T03:05:12.611Z,12.00
2017-09-12T03:07:42.199Z,11.97
2017-09-12T03:10:11.984Z,11.93
2017-09-12T03:12:41.626Z,11.89
2017-09-12T03:15:11.164Z,11.88
2017-09-12T03:17:40.475Z,11.86
2017-09-12T03:20:10.323Z,11.84
2017-09-12T03:22:39.726Z,11.83
2017-09-12T03:25:09.152Z,11.82
2017-09-12T03:27:38.595Z,11.81
2017-09-12T03:30:08.062Z,11.78
2017-09-12T03:32:37.429Z,11.76
2017-09-12T03:35:06.853Z,11.77
2017-09-12T03:37:37.125Z,11.76
2017-09-12T03:40:06.600Z,11.75
2017-09-12T03:42:36.002Z,11.74
2017-09-12T03:45:05.474Z,11.71
2017-09-12T03:47:34.936Z,11.69
2017-09-12T03:50:04.357Z,11.69
2017-09-12T03:52:33.737Z,11.68
2017-09-12T03:55:03.182Z,11.68
2017-09-12T03:57:32.548Z,11.65
2017-09-12T04:00:03.445Z,11.66
2017-09-12T04:02:39.763Z,11.64
2017-09-12T04:05:09.772Z,11.59
2017-09-12T04:07:39.260Z,11.58
2017-09-12T04:10:08.616Z,11.60
2017-09-12T04:12:38.072Z,11.64
2017-09-12T04:15:07.685Z,11.64
2017-09-12T04:17:36.987Z,11.67
2017-09-12T04:20:06.480Z,11.69
2017-09-12T04:22:35.828Z,11.68
2017-09-12T04:25:05.635Z,11.66
2017-09-12T04:27:36.530Z,11.66
2017-09-12T04:30:06.224Z,11.66
2017-09-12T04:32:35.602Z,11.62
2017-09-12T04:35:05.024Z,11.61
2017-09-12T04:37:34.436Z,11.61
2017-09-12T04:40:03.962Z,11.62
2017-09-12T04:42:33.568Z,11.64
2017-09-12T04:45:02.897Z,11.63
2017-09-12T04:47:32.248Z,11.62
2017-09-12T04:50:01.573Z,11.62
2017-09-12T04:52:32.417Z,11.65
2017-09-12T04:55:01.809Z,11.67
2017-09-12T04:57:32.164Z,11.70
2017-09-12T05:00:01.747Z,11.71
2017-09-12T05:02:31.180Z,11.78
2017-09-12T05:05:00.707Z,11.83
2017-09-12T05:07:30.666Z,11.88
2017-09-12T05:10:00.099Z,11.94
2017-09-12T05:12:30.321Z,11.99
2017-09-12T05:15:00.818Z,12.01
2017-09-12T05:17:30.328Z,12.05
2017-09-12T05:19:59.692Z,12.11
2017-09-12T05:22:29.124Z,12.14
2017-09-12T05:24:58.544Z,12.16
2017-09-12T05:27:28.188Z,12.22
2017-09-12T05:29:58.064Z,12.26
2017-09-12T05:32:28.052Z,12.31
2017-09-12T05:34:57.646Z,12.32
2017-09-12T05:37:29.559Z,12.42
2017-09-12T05:39:59.110Z,12.46
2017-09-12T05:42:28.496Z,12.52
2017-09-12T05:44:57.834Z,12.59
2017-09-12T05:47:27.184Z,12.64
2017-09-12T05:49:56.738Z,12.67
2017-09-12T05:52:26.749Z,12.69
2017-09-12T05:54:56.102Z,12.77
2017-09-12T05:57:25.468Z,12.76
2017-09-12T05:59:54.788Z,12.79
2017-09-12T06:02:24.153Z,12.89
2017-09-12T06:04:53.781Z,12.94
2017-09-12T06:07:23.288Z,13.05
2017-09-12T06:09:52.634Z,13.05
2017-09-12T06:12:22.327Z,13.16
2017-09-12T06:14:52.718Z,13.20
2017-09-12T06:17:22.053Z,13.24
2017-09-12T06:19:51.416Z,13.38
2017-09-12T06:22:21.136Z,13.48
2017-09-12T06:24:50.618Z,13.48
2017-09-12T06:27:21.013Z,13.46
2017-09-12T06:29:50.326Z,13.51
2017-09-12T06:32:19.745Z,13.63
2017-09-12T06:34:49.052Z,13.71
2017-09-12T06:37:18.389Z,13.77
2017-09-12T06:39:48.325Z,13.71
2017-09-12T06:42:17.753Z,13.74
2017-09-12T06:44:47.504Z,13.79
2017-09-12T06:47:16.979Z,13.88
2017-09-12T06:49:46.452Z,13.96
2017-09-12T06:52:16.148Z,14.13
2017-09-12T06:54:45.562Z,14.09
2017-09-12T06:57:14.912Z,14.15
2017-09-12T06:59:44.260Z,14.15
2017-09-12T07:02:13.637Z,14.34
2017-09-12T07:04:43.028Z,14.36
2017-09-12T07:07:12.648Z,14.38
2017-09-12T07:09:48.957Z,14.34
2017-09-12T07:12:25.217Z,14.36
2017-09-12T07:14:54.834Z,14.42
2017-09-12T07:17:25.193Z,14.37
2017-09-12T07:20:06.589Z,14.43
2017-09-12T07:25:54.029Z,14.49
2017-09-12T07:28:24.613Z,14.55
2017-09-12T07:30:54.274Z,14.67
2017-09-12T07:33:24.968Z,14.74
2017-09-12T07:36:17.414Z,14.79
2017-09-12T07:38:57.475Z,14.86
2017-09-12T07:41:36.352Z,14.75
2017-09-12T07:44:07.425Z,14.83
2017-09-12T07:46:37.750Z,14.91
2017-09-12T07:49:07.421Z,14.86
2017-09-12T07:51:37.240Z,15.00
2017-09-12T07:54:14.581Z,14.99
2017-09-12T07:56:49.808Z,15.11
2017-09-12T07:59:23.925Z,15.23
2017-09-12T08:01:53.778Z,15.22
2017-09-12T08:04:23.090Z,15.25
2017-09-12T08:06:52.505Z,15.31
2017-09-12T08:09:21.843Z,15.25
2017-09-12T08:11:51.469Z,15.48
2017-09-12T08:14:21.200Z,15.55
2017-09-12T08:16:51.994Z,15.48
2017-09-12T08:19:21.965Z,15.60
2017-09-12T08:21:51.534Z,15.57
2017-09-12T08:24:21.015Z,15.62
2017-09-12T08:26:50.552Z,15.67
2017-09-12T08:29:20.176Z,15.67
2017-09-12T08:31:49.734Z,15.64
2017-09-12T08:34:19.136Z,15.83
2017-09-12T08:36:48.729Z,16.07
2017-09-12T08:39:18.209Z,16.23
2017-09-12T08:41:47.823Z,16.44
2017-09-12T08:44:18.309Z,16.54
2017-09-12T08:46:47.968Z,16.62
2017-09-12T08:49:18.437Z,16.69
2017-09-12T08:51:48.685Z,16.87
2017-09-12T08:54:18.362Z,17.02
2017-09-12T08:56:47.759Z,17.15
2017-09-12T08:59:17.279Z,17.12
2017-09-12T09:01:56.892Z,17.12
2017-09-12T09:04:26.217Z,17.01
2017-09-12T09:06:55.685Z,17.24
2017-09-12T09:09:25.664Z,17.26
2017-09-12T09:11:55.271Z,17.27
2017-09-12T09:14:24.608Z,17.26
2017-09-12T09:16:54.136Z,17.22
2017-09-12T09:19:23.503Z,17.31
2017-09-12T09:21:52.922Z,17.37
2017-09-12T09:30:42.322Z,18.06
2017-09-12T09:33:11.945Z,18.18
2017-09-12T09:35:41.357Z,18.33
2017-09-12T09:38:10.704Z,18.42
2017-09-12T09:40:40.253Z,18.73
2017-09-12T09:43:09.549Z,18.78
2017-09-12T09:45:38.863Z,19.14
2017-09-12T09:48:08.329Z,19.76
2017-09-12T09:50:37.905Z,20.06
2017-09-12T09:53:07.321Z,19.69
2017-09-12T09:55:36.740Z,19.52
2017-09-12T09:58:06.108Z,19.15
2017-09-12T10:00:36.831Z,19.06
2017-09-12T10:03:06.101Z,19.39
2017-09-12T10:05:35.484Z,19.53
2017-09-12T10:08:11.800Z,19.49
2017-09-12T10:10:41.157Z,19.65
2017-09-12T10:13:11.249Z,19.79
2017-09-12T10:15:40.781Z,19.32
2017-09-12T10:18:10.065Z,18.98
2017-09-12T10:20:39.447Z,18.93
2017-09-12T10:23:09.560Z,18.86
2017-09-12T10:25:41.784Z,18.61
2017-09-12T10:28:12.433Z,18.41
2017-09-12T10:30:42.057Z,18.45
2017-09-12T10:33:17.706Z,18.74
2017-09-12T10:35:47.297Z,18.86
2017-09-12T10:38:16.562Z,18.91
2017-09-12T10:40:54.242Z,19.14
2017-09-12T10:43:26.836Z,18.95
2017-09-12T10:45:56.658Z,18.95
2017-09-12T10:48:26.025Z,18.99
2017-09-12T10:50:56.328Z,18.87
2017-09-12T10:53:25.785Z,19.00
2017-09-12T10:55:55.164Z,19.15
2017-09-12T10:58:24.708Z,19.08
2017-09-12T11:00:53.988Z,19.12
2017-09-12T11:03:23.417Z,19.08
2017-09-12T11:05:52.737Z,19.08
2017-09-12T11:08:22.037Z,19.28
2017-09-12T11:10:51.839Z,19.00
2017-09-12T11:13:21.064Z,18.97
2017-09-12T11:15:50.341Z,18.97
2017-09-12T11:18:19.644Z,18.76
2017-09-12T11:20:48.988Z,18.67
2017-09-12T11:23:18.817Z,18.57
2017-09-12T11:25:48.184Z,18.31
2017-09-12T11:28:17.729Z,18.37
2017-09-12T11:30:47.020Z,18.34
2017-09-12T11:33:16.472Z,18.24
2017-09-12T11:35:46.023Z,18.28
2017-09-12T11:38:15.280Z,18.24
2017-09-12T11:40:44.660Z,18.18
2017-09-12T11:43:13.943Z,18.21
2017-09-12T11:45:43.225Z,18.18
2017-09-12T11:48:12.481Z,18.11
2017-09-12T11:50:41.779Z,18.13
2017-09-12T11:53:11.020Z,18.11
2017-09-12T11:55:40.344Z,18.04
2017-09-12T11:58:09.592Z,18.11
2017-09-12T12:00:38.868Z,18.22
2017-09-12T12:03:08.157Z,18.32
2017-09-12T12:05:37.484Z,18.60
2017-09-12T12:08:06.725Z,18.81
2017-09-12T12:10:36.378Z,18.81
2017-09-12T12:13:05.620Z,18.69
2017-09-12T12:15:35.819Z,18.54
2017-09-12T12:20:58.943Z,18.61
2017-09-12T12:23:28.192Z,18.45
2017-09-12T12:25:57.509Z,18.59
2017-09-12T12:28:26.825Z,18.39
2017-09-12T12:30:56.104Z,18.45
2017-09-12T12:33:26.340Z,18.46
2017-09-12T12:36:12.368Z,18.50
2017-09-12T12:38:41.769Z,18.49
2017-09-12T12:41:11.418Z,18.41
2017-09-12T12:43:41.111Z,18.48
2017-09-12T12:46:34.496Z,18.54
2017-09-12T12:49:08.124Z,18.48
2017-09-12T12:51:37.705Z,18.40
2017-09-12T12:54:06.984Z,18.31
2017-09-12T12:56:36.286Z,18.07
2017-09-12T12:59:05.689Z,18.00
2017-09-12T13:01:35.240Z,17.82
2017-09-12T13:04:04.468Z,17.49
2017-09-12T13:06:38.055Z,17.31
2017-09-12T13:09:08.556Z,17.22
2017-09-12T13:11:37.866Z,17.11
2017-09-12T13:14:07.146Z,16.91
2017-09-12T13:16:40.672Z,16.75
2017-09-12T13:19:37.393Z,16.58
2017-09-12T13:22:06.817Z,16.54
2017-09-12T13:24:36.156Z,16.48
2017-09-12T13:27:05.485Z,16.32
2017-09-12T13:29:34.756Z,16.31
2017-09-12T13:32:04.202Z,16.29
2017-09-12T13:34:33.482Z,16.30
2017-09-12T13:37:02.790Z,16.46
2017-09-12T13:39:32.042Z,16.61
2017-09-12T13:42:01.392Z,16.82
2017-09-12T13:44:30.685Z,16.88
2017-09-12T13:46:59.941Z,16.79
2017-09-12T13:49:29.168Z,16.83
2017-09-12T13:51:58.448Z,16.87
2017-09-12T13:54:27.736Z,16.95
2017-09-12T13:56:57.200Z,17.09
2017-09-12T13:59:26.473Z,17.17
2017-09-12T14:01:56.429Z,17.25
2017-09-12T14:04:25.681Z,17.28
2017-09-12T14:06:54.954Z,17.38
2017-09-12T14:09:24.216Z,17.38
2017-09-12T14:11:53.475Z,17.32
2017-09-12T14:14:22.756Z,17.47
2017-09-12T14:16:52.005Z,17.53
2017-09-12T14:19:21.281Z,17.50
2017-09-12T14:21:50.550Z,17.53
2017-09-12T14:24:19.788Z,17.53
2017-09-12T14:26:49.226Z,17.51
2017-09-12T14:29:18.513Z,17.49
2017-09-12T14:31:47.805Z,17.56
2017-09-12T14:34:17.038Z,17.59
2017-09-12T14:36:46.334Z,17.61
2017-09-12T14:39:15.575Z,17.57
2017-09-12T14:41:44.890Z,17.61
2017-09-12T14:44:14.142Z,17.54
2017-09-12T14:46:43.441Z,17.49
2017-09-12T14:49:12.871Z,17.45
2017-09-12T14:51:42.124Z,17.37
2017-09-12T14:54:11.470Z,17.34
2017-09-12T14:56:40.814Z,17.30
2017-09-12T14:59:10.126Z,17.36
2017-09-12T15:01:39.641Z,17.40
2017-09-12T15:04:08.928Z,17.46
2017-09-12T15:06:38.303Z,17.54
2017-09-12T15:09:07.588Z,17.54
2017-09-12T15:11:36.851Z,17.55
2017-09-12T15:14:06.109Z,17.57
2017-09-12T15:16:35.389Z,17.58
2017-09-12T15:19:04.649Z,17.58
2017-09-12T15:21:33.910Z,17.65
2017-09-12T15:24:03.168Z,17.70
2017-09-12T15:26:32.529Z,17.72
2017-09-12T15:29:02.337Z,17.80
2017-09-12T15:31:31.603Z,17.81
2017-09-12T15:34:00.894Z,17.85
2017-09-12T15:36:30.229Z,17.86
2017-09-12T15:38:59.453Z,17.78
2017-09-12T15:41:28.716Z,17.68
2017-09-12T15:43:58.059Z,17.63
2017-09-12T15:46:28.586Z,17.58
2017-09-12T15:48:57.840Z,17.61
2017-09-12T15:51:27.329Z,17.62
2017-09-12T15:53:56.635Z,17.55
2017-09-12T15:56:26.706Z,17.54
2017-09-12T15:58:56.049Z,17.50
2017-09-12T16:01:25.321Z,17.49
2017-09-12T16:03:54.576Z,17.44
2017-09-12T16:06:23.839Z,17.39
2017-09-12T16:08:53.401Z,17.37
2017-09-12T16:11:22.723Z,17.31
2017-09-12T16:13:52.081Z,17.32
2017-09-12T16:16:21.414Z,17.25
2017-09-12T16:18:50.641Z,17.25
2017-09-12T16:21:19.896Z,17.29
2017-09-12T16:23:49.113Z,17.24
2017-09-12T16:26:25.093Z,17.19
2017-09-12T16:28:54.359Z,17.22
2017-09-12T16:31:23.833Z,17.25
2017-09-12T16:33:53.057Z,17.13
2017-09-12T16:36:22.321Z,17.19
2017-09-12T16:38:51.549Z,17.18
2017-09-12T16:41:20.818Z,17.06
2017-09-12T16:43:50.239Z,17.07
2017-09-12T16:46:19.862Z,16.93
2017-09-12T16:48:49.096Z,16.87
2017-09-12T16:51:18.443Z,16.76
2017-09-12T16:53:47.691Z,16.61
2017-09-12T16:56:16.958Z,16.59
2017-09-12T16:58:46.222Z,16.54
2017-09-12T17:01:15.481Z,16.54
2017-09-12T17:03:44.713Z,16.47
2017-09-12T17:06:13.965Z,16.39
2017-09-12T17:08:43.245Z,16.25
2017-09-12T17:11:12.725Z,16.22
2017-09-12T17:13:42.025Z,16.21
2017-09-12T17:16:11.449Z,16.15
2017-09-12T17:18:40.836Z,16.08
2017-09-12T17:21:10.329Z,16.05
2017-09-12T17:23:39.581Z,16.03
2017-09-12T17:26:08.842Z,15.98
2017-09-12T17:28:38.125Z,15.92
2017-09-12T17:31:07.496Z,15.88
2017-09-12T17:33:36.769Z,15.80
2017-09-12T17:36:06.000Z,15.76
2017-09-12T17:38:35.257Z,15.72
2017-09-12T17:41:04.870Z,15.64
2017-09-12T17:43:34.140Z,15.60
2017-09-12T17:46:03.449Z,15.53
2017-09-12T17:48:32.717Z,15.52
2017-09-12T17:51:02.032Z,15.44
2017-09-12T17:53:31.490Z,15.41
2017-09-12T17:56:00.843Z,15.35
2017-09-12T17:58:30.295Z,15.32
2017-09-12T18:00:59.577Z,15.24
2017-09-12T18:03:28.825Z,15.18
2017-09-12T18:05:58.080Z,15.14
2017-09-12T18:08:27.435Z,15.09
2017-09-12T18:10:56.678Z,15.06
2017-09-12T18:13:25.959Z,15.04
2017-09-12T18:15:55.477Z,15.03
2017-09-12T18:18:25.256Z,15.02
2017-09-12T18:20:54.549Z,15.02
2017-09-12T18:23:23.944Z,15.02
2017-09-12T18:25:53.197Z,15.01
2017-09-12T18:28:22.540Z,14.99
2017-09-12T18:30:51.936Z,14.91
2017-09-12T18:33:21.356Z,14.90
2017-09-12T18:35:52.444Z,14.86
2017-09-12T18:38:22.337Z,14.84
2017-09-12T18:40:51.938Z,14.79
2017-09-12T18:43:21.247Z,14.79
2017-09-12T18:45:50.519Z,14.75
2017-09-12T18:48:19.785Z,14.73
2017-09-12T18:50:49.214Z,14.69
2017-09-12T18:53:20.207Z,14.65
2017-09-12T18:55:51.978Z,14.59
2017-09-12T18:58:21.509Z,14.59
2017-09-12T19:00:51.073Z,14.56
2017-09-12T19:03:20.330Z,14.45
2017-09-12T19:05:49.739Z,14.51
2017-09-12T19:08:19.031Z,14.46
2017-09-12T19:10:48.546Z,14.47
2017-09-12T19:13:18.244Z,14.47
2017-09-12T19:15:47.680Z,14.45
2017-09-12T19:18:16.952Z,14.43
2017-09-12T19:20:46.361Z,14.43
2017-09-12T19:23:15.748Z,14.45
2017-09-12T19:25:45.052Z,14.43
2017-09-12T19:28:14.301Z,14.43
2017-09-12T19:30:43.771Z,14.43
2017-09-12T19:33:13.053Z,14.43
2017-09-12T19:35:42.418Z,14.39
2017-09-12T19:38:11.829Z,14.44
2017-09-12T19:40:41.312Z,14.43
2017-09-12T19:43:10.609Z,14.40
2017-09-12T19:45:40.129Z,14.40
2017-09-12T19:48:09.389Z,14.34
2017-09-12T19:50:38.939Z,14.24
2017-09-12T19:53:08.358Z,14.25
2017-09-12T19:55:37.794Z,14.21
2017-09-12T19:58:07.093Z,14.18
2017-09-12T20:00:36.616Z,14.13
2017-09-12T20:03:05.945Z,14.07
2017-09-12T20:05:35.656Z,13.98
2017-09-12T20:08:05.339Z,13.97
2017-09-12T20:10:34.858Z,13.98
2017-09-12T20:13:04.964Z,13.99
2017-09-12T20:15:38.501Z,13.99
2017-09-12T20:18:08.242Z,13.94
2017-09-12T20:20:37.783Z,13.93
2017-09-12T20:23:08.214Z,13.90
2017-09-12T20:25:37.981Z,13.88
2017-09-12T20:28:07.356Z,13.90
2017-09-12T20:30:36.847Z,13.85
2017-09-12T20:33:06.277Z,13.86
2017-09-12T20:35:36.488Z,13.87
2017-09-12T20:38:05.825Z,13.91
2017-09-12T20:40:35.551Z,13.91
2017-09-12T20:43:05.106Z,13.87
2017-09-12T20:45:34.912Z,13.86
2017-09-12T20:48:04.295Z,13.87
2017-09-12T20:50:33.607Z,13.85
2017-09-12T20:53:02.896Z,13.85
2017-09-12T20:55:32.261Z,13.83
2017-09-12T20:58:01.640Z,13.74
2017-09-12T21:00:31.016Z,13.72
2017-09-12T21:03:00.286Z,13.66
2017-09-12T21:05:29.645Z,13.61
2017-09-12T21:07:59.012Z,13.62
2017-09-12T21:10:28.469Z,13.58
2017-09-12T21:12:57.988Z,13.55
2017-09-12T21:15:27.738Z,13.51
2017-09-12T21:17:57.160Z,13.47
2017-09-12T21:20:26.597Z,13.42
2017-09-12T21:22:55.820Z,13.39
2017-09-12T21:25:25.200Z,13.32
2017-09-12T21:27:54.455Z,13.28
2017-09-12T21:30:24.016Z,13.23
2017-09-12T21:32:53.292Z,13.22
2017-09-12T21:35:22.579Z,13.14
2017-09-12T21:37:51.892Z,13.09
2017-09-12T21:40:21.259Z,13.07
2017-09-12T21:42:50.512Z,13.03
2017-09-12T21:45:19.826Z,13.01
2017-09-12T21:47:49.121Z,12.96
2017-09-12T21:50:18.509Z,12.90
2017-09-12T21:52:47.756Z,12.87
2017-09-12T21:55:17.062Z,12.81
2017-09-12T21:57:46.335Z,12.78
2017-09-12T22:00:15.642Z,12.72
2017-09-12T22:02:44.904Z,12.65
2017-09-12T22:05:14.230Z,12.59
2017-09-12T22:07:44.698Z,12.61
2017-09-12T22:10:14.282Z,12.61
2017-09-12T22:12:43.536Z,12.56
2017-09-12T22:15:12.821Z,12.53
2017-09-12T22:17:42.114Z,12.53
2017-09-12T22:20:11.749Z,12.51
2017-09-12T22:22:41.064Z,12.48
2017-09-12T22:25:10.512Z,12.39
2017-09-12T22:27:39.786Z,12.40
2017-09-12T22:30:09.069Z,12.38
2017-09-12T22:32:38.389Z,12.32
2017-09-12T22:35:07.736Z,12.28
2017-09-12T22:37:37.020Z,12.20
2017-09-12T22:40:06.344Z,12.24
2017-09-12T22:42:35.595Z,12.24
2017-09-12T22:45:04.844Z,12.16
2017-09-12T22:47:34.256Z,12.18
2017-09-12T22:50:03.525Z,12.21
2017-09-12T22:52:32.840Z,12.18
2017-09-12T22:55:02.110Z,12.13
2017-09-12T22:57:31.416Z,12.12
2017-09-12T23:00:00.642Z,12.08
2017-09-12T23:02:29.910Z,12.08
2017-09-12T23:04:59.177Z,12.06
2017-09-12T23:07:28.469Z,12.03
2017-09-12T23:09:57.785Z,12.02
2017-09-12T23:12:27.220Z,11.98
2017-09-12T23:14:56.453Z,11.95
2017-09-12T23:17:25.741Z,11.93
2017-09-12T23:19:54.998Z,11.94
2017-09-12T23:22:33.873Z,11.93
2017-09-12T23:25:03.142Z,11.87
2017-09-12T23:27:32.438Z,11.81
2017-09-12T23:30:01.818Z,11.78
2017-09-12T23:32:31.104Z,11.77
2017-09-12T23:35:00.340Z,11.79
2017-09-12T23:37:29.592Z,11.79
2017-09-12T23:39:59.866Z,11.74
2017-09-12T23:42:29.161Z,11.74
2017-09-12T23:44:58.517Z,11.71
2017-09-12T23:47:27.848Z,11.73
2017-09-12T23:49:57.109Z,11.71
2017-09-12T23:52:26.385Z,11.70
2017-09-12T23:54:55.619Z,11.68
2017-09-12T23:57:24.889Z,11.68
2017-09-12T23:59:54.157Z,11.68
